SCX3009 KTOL-KAFW
Flight info
| Callsign | SCX3009 |
|---|---|
| Flight time | 3h 6m |
| Altitude | 30000 |
| Route | ILLIE TWERP NATTY FWA TILMN FAM FSM RRNET TRUUK3 |
| Aircraft | B738/M-SDE2E3FGHIRWXY/LB1 |
Departure
| Time | 2026-05-06 20:09 |
|---|---|
| Airport | Eugene F. Kranz Toledo Express Airport (KTOL) |
Arrival
| Time | 2026-05-06 23:16 |
|---|---|
| Airport | Perot Field/Fort Worth Alliance Airport (KAFW) |
| Time | Latitude | Longitude | Altitude | Speed | Heading |
|---|---|---|---|---|---|
| 2026-05-06 19:35 | 41.58381 | -83.81274 | 681 ft | 0 kts | 65° |
| 2026-05-06 20:03 | 41.58385 | -83.81268 | 681 ft | 4 kts | 42° |
| 2026-05-06 20:03 | 41.58419 | -83.81245 | 681 ft | 7 kts | 32° |
| 2026-05-06 20:03 | 41.58471 | -83.81200 | 681 ft | 8 kts | 32° |
| 2026-05-06 20:04 | 41.58522 | -83.81165 | 681 ft | 7 kts | 16° |
| 2026-05-06 20:04 | 41.58583 | -83.81162 | 681 ft | 9 kts | 23° |
| 2026-05-06 20:04 | 41.58620 | -83.81078 | 681 ft | 11 kts | 68° |
| 2026-05-06 20:04 | 41.58654 | -83.80974 | 680 ft | 13 kts | 66° |
| 2026-05-06 20:05 | 41.58694 | -83.80857 | 681 ft | 15 kts | 65° |
| 2026-05-06 20:05 | 41.58738 | -83.80708 | 679 ft | 19 kts | 68° |
| 2026-05-06 20:05 | 41.58794 | -83.80530 | 678 ft | 21 kts | 67° |
| 2026-05-06 20:05 | 41.58839 | -83.80350 | 674 ft | 18 kts | 89° |
| 2026-05-06 20:06 | 41.58830 | -83.80192 | 674 ft | 14 kts | 81° |
| 2026-05-06 20:06 | 41.58868 | -83.80061 | 672 ft | 15 kts | 66° |
| 2026-05-06 20:06 | 41.58921 | -83.79895 | 671 ft | 21 kts | 66° |
| 2026-05-06 20:06 | 41.58977 | -83.79714 | 668 ft | 21 kts | 67° |
| 2026-05-06 20:07 | 41.59032 | -83.79538 | 667 ft | 18 kts | 67° |
| 2026-05-06 20:07 | 41.59079 | -83.79425 | 667 ft | 10 kts | 21° |
| 2026-05-06 20:07 | 41.59146 | -83.79446 | 667 ft | 9 kts | 338° |
| 2026-05-06 20:07 | 41.59208 | -83.79481 | 668 ft | 9 kts | 336° |
| 2026-05-06 20:08 | 41.59259 | -83.79511 | 668 ft | 3 kts | 330° |
| 2026-05-06 20:08 | 41.59257 | -83.79534 | 668 ft | 6 kts | 250° |
| 2026-05-06 20:08 | 41.59175 | -83.79794 | 670 ft | 61 kts | 248° |
| 2026-05-06 20:08 | 41.58931 | -83.80565 | 679 ft | 117 kts | 248° |
| 2026-05-06 20:09 | 41.58550 | -83.81776 | 681 ft | 164 kts | 248° |
| 2026-05-06 20:09 | 41.58078 | -83.83231 | 1079 ft | 173 kts | 249° |
| 2026-05-06 20:09 | 41.57624 | -83.84689 | 1756 ft | 172 kts | 252° |
| 2026-05-06 20:09 | 41.57171 | -83.86163 | 2388 ft | 172 kts | 251° |
| 2026-05-06 20:10 | 41.56618 | -83.87595 | 2814 ft | 184 kts | 235° |
| 2026-05-06 20:10 | 41.55542 | -83.88673 | 3130 ft | 204 kts | 212° |
| 2026-05-06 20:10 | 41.54242 | -83.89587 | 3494 ft | 217 kts | 212° |
| 2026-05-06 20:10 | 41.52874 | -83.90576 | 3867 ft | 230 kts | 212° |
| 2026-05-06 20:11 | 41.51481 | -83.91688 | 4237 ft | 242 kts | 216° |
| 2026-05-06 20:11 | 41.50028 | -83.92925 | 4653 ft | 254 kts | 216° |
| 2026-05-06 20:11 | 41.48486 | -83.94219 | 5096 ft | 265 kts | 214° |
| 2026-05-06 20:11 | 41.46914 | -83.95505 | 5722 ft | 268 kts | 214° |
| 2026-05-06 20:12 | 41.45318 | -83.96796 | 6381 ft | 271 kts | 214° |
| 2026-05-06 20:12 | 41.43713 | -83.98099 | 7116 ft | 270 kts | 215° |
| 2026-05-06 20:12 | 41.42128 | -83.99390 | 7880 ft | 269 kts | 215° |
| 2026-05-06 20:12 | 41.40543 | -84.00680 | 8591 ft | 269 kts | 216° |
| 2026-05-06 20:13 | 41.38945 | -84.01968 | 9282 ft | 271 kts | 215° |
| 2026-05-06 20:13 | 41.37339 | -84.03235 | 10060 ft | 270 kts | 216° |
| 2026-05-06 20:13 | 41.35726 | -84.04507 | 10747 ft | 272 kts | 216° |
| 2026-05-06 20:13 | 41.34094 | -84.05827 | 11320 ft | 278 kts | 217° |
| 2026-05-06 20:14 | 41.32450 | -84.07180 | 12036 ft | 280 kts | 217° |
| 2026-05-06 20:14 | 41.30794 | -84.08530 | 12751 ft | 281 kts | 217° |
| 2026-05-06 20:14 | 41.29129 | -84.09874 | 13468 ft | 282 kts | 217° |
| 2026-05-06 20:14 | 41.27455 | -84.11221 | 14147 ft | 283 kts | 217° |
| 2026-05-06 20:15 | 41.25859 | -84.12697 | 14862 ft | 279 kts | 226° |
| 2026-05-06 20:15 | 41.24676 | -84.14619 | 15598 ft | 272 kts | 243° |
| 2026-05-06 20:15 | 41.23969 | -84.16943 | 16344 ft | 269 kts | 252° |
| 2026-05-06 20:15 | 41.23412 | -84.19266 | 17019 ft | 269 kts | 252° |
| 2026-05-06 20:16 | 41.22835 | -84.21606 | 17685 ft | 268 kts | 251° |
| 2026-05-06 20:16 | 41.22241 | -84.23951 | 18267 ft | 270 kts | 252° |
| 2026-05-06 20:16 | 41.21641 | -84.26305 | 18884 ft | 271 kts | 252° |
| 2026-05-06 20:16 | 41.21047 | -84.28658 | 19503 ft | 271 kts | 253° |
| 2026-05-06 20:17 | 41.20445 | -84.31042 | 20132 ft | 271 kts | 252° |
| 2026-05-06 20:17 | 41.19855 | -84.33370 | 20748 ft | 271 kts | 252° |
| 2026-05-06 20:17 | 41.19259 | -84.35712 | 21413 ft | 268 kts | 253° |
| 2026-05-06 20:17 | 41.18649 | -84.38069 | 22010 ft | 268 kts | 253° |
| 2026-05-06 20:18 | 41.18049 | -84.40393 | 22556 ft | 268 kts | 253° |
| 2026-05-06 20:18 | 41.17455 | -84.42735 | 23071 ft | 269 kts | 254° |
| 2026-05-06 20:18 | 41.16872 | -84.45074 | 23647 ft | 267 kts | 254° |
| 2026-05-06 20:18 | 41.16286 | -84.47394 | 24188 ft | 266 kts | 254° |
| 2026-05-06 20:19 | 41.15694 | -84.49696 | 24693 ft | 265 kts | 253° |
| 2026-05-06 20:19 | 41.15099 | -84.52025 | 25020 ft | 269 kts | 254° |
| 2026-05-06 20:19 | 41.14507 | -84.54378 | 25435 ft | 270 kts | 253° |
| 2026-05-06 20:19 | 41.13909 | -84.56719 | 25972 ft | 268 kts | 254° |
| 2026-05-06 20:20 | 41.13318 | -84.59022 | 26346 ft | 269 kts | 254° |
| 2026-05-06 20:20 | 41.12711 | -84.61377 | 26734 ft | 270 kts | 254° |
| 2026-05-06 20:20 | 41.12109 | -84.63738 | 27121 ft | 270 kts | 253° |
| 2026-05-06 20:20 | 41.11507 | -84.66097 | 27574 ft | 269 kts | 253° |
| 2026-05-06 20:21 | 41.10918 | -84.68407 | 28019 ft | 269 kts | 252° |
| 2026-05-06 20:21 | 41.10315 | -84.70757 | 28338 ft | 271 kts | 254° |
| 2026-05-06 20:21 | 41.09714 | -84.73112 | 28706 ft | 272 kts | 253° |
| 2026-05-06 20:21 | 41.09108 | -84.75471 | 29126 ft | 271 kts | 252° |
| 2026-05-06 20:22 | 41.08501 | -84.77837 | 29503 ft | 271 kts | 254° |
| 2026-05-06 20:22 | 41.07895 | -84.80193 | 29873 ft | 271 kts | 253° |
| 2026-05-06 20:22 | 41.07287 | -84.82559 | 29947 ft | 273 kts | 253° |
| 2026-05-06 20:22 | 41.06672 | -84.84946 | 29952 ft | 273 kts | 253° |
| 2026-05-06 20:23 | 41.06070 | -84.87284 | 29949 ft | 270 kts | 253° |
| 2026-05-06 20:23 | 41.05462 | -84.89653 | 29952 ft | 270 kts | 254° |
| 2026-05-06 20:23 | 41.04857 | -84.92004 | 29949 ft | 269 kts | 253° |
| 2026-05-06 20:23 | 41.04253 | -84.94326 | 29970 ft | 270 kts | 253° |
| 2026-05-06 20:24 | 41.03643 | -84.96669 | 29963 ft | 271 kts | 254° |
| 2026-05-06 20:24 | 41.03035 | -84.99055 | 29969 ft | 272 kts | 254° |
| 2026-05-06 20:24 | 41.02439 | -85.01391 | 29966 ft | 271 kts | 253° |
| 2026-05-06 20:24 | 41.01823 | -85.03748 | 29971 ft | 270 kts | 254° |
| 2026-05-06 20:25 | 41.01207 | -85.06113 | 29970 ft | 271 kts | 254° |
| 2026-05-06 20:25 | 41.00600 | -85.08434 | 29969 ft | 269 kts | 253° |
| 2026-05-06 20:25 | 40.99994 | -85.10775 | 29971 ft | 269 kts | 253° |
| 2026-05-06 20:25 | 40.99380 | -85.13122 | 29975 ft | 268 kts | 253° |
| 2026-05-06 20:26 | 40.98772 | -85.15456 | 29969 ft | 268 kts | 253° |
| 2026-05-06 20:26 | 40.98131 | -85.17755 | 29973 ft | 269 kts | 251° |
| 2026-05-06 20:26 | 40.97297 | -85.19979 | 29973 ft | 274 kts | 245° |
| 2026-05-06 20:26 | 40.96227 | -85.22068 | 29971 ft | 276 kts | 242° |
| 2026-05-06 20:27 | 40.95073 | -85.24101 | 29972 ft | 276 kts | 241° |
| 2026-05-06 20:27 | 40.93952 | -85.26121 | 29970 ft | 275 kts | 243° |
| 2026-05-06 20:27 | 40.92833 | -85.28188 | 29969 ft | 276 kts | 242° |
| 2026-05-06 20:27 | 40.91723 | -85.30241 | 29971 ft | 273 kts | 242° |
| 2026-05-06 20:28 | 40.90616 | -85.32297 | 29966 ft | 276 kts | 243° |
| 2026-05-06 20:28 | 40.89506 | -85.34360 | 29968 ft | 277 kts | 242° |
| 2026-05-06 20:28 | 40.88382 | -85.36423 | 29971 ft | 275 kts | 243° |
| 2026-05-06 20:28 | 40.87270 | -85.38483 | 29977 ft | 275 kts | 243° |
| 2026-05-06 20:29 | 40.86166 | -85.40514 | 29975 ft | 275 kts | 242° |
| 2026-05-06 20:29 | 40.85057 | -85.42568 | 29981 ft | 273 kts | 243° |
| 2026-05-06 20:29 | 40.83944 | -85.44626 | 29974 ft | 275 kts | 242° |
| 2026-05-06 20:29 | 40.82845 | -85.46650 | 29975 ft | 273 kts | 243° |
| 2026-05-06 20:30 | 40.81730 | -85.48699 | 29977 ft | 275 kts | 243° |
| 2026-05-06 20:30 | 40.79499 | -85.52802 | 29977 ft | 274 kts | 242° |
| 2026-05-06 20:30 | 40.78387 | -85.54836 | 29975 ft | 275 kts | 242° |
| 2026-05-06 20:31 | 40.77264 | -85.56896 | 29969 ft | 275 kts | 242° |
| 2026-05-06 20:31 | 40.76147 | -85.58933 | 29976 ft | 275 kts | 241° |
| 2026-05-06 20:31 | 40.75028 | -85.60985 | 29968 ft | 274 kts | 242° |
| 2026-05-06 20:31 | 40.73924 | -85.63002 | 29974 ft | 275 kts | 242° |
| 2026-05-06 20:32 | 40.72798 | -85.65067 | 29967 ft | 277 kts | 242° |
| 2026-05-06 20:32 | 40.71680 | -85.67116 | 29967 ft | 278 kts | 242° |
| 2026-05-06 20:32 | 40.70558 | -85.69171 | 29966 ft | 276 kts | 241° |
| 2026-05-06 20:32 | 40.69445 | -85.71225 | 29969 ft | 276 kts | 242° |
| 2026-05-06 20:33 | 40.68317 | -85.73280 | 29969 ft | 277 kts | 241° |
| 2026-05-06 20:33 | 40.67187 | -85.75325 | 29968 ft | 276 kts | 242° |
| 2026-05-06 20:33 | 40.66075 | -85.77349 | 29972 ft | 276 kts | 241° |
| 2026-05-06 20:33 | 40.64955 | -85.79404 | 29970 ft | 275 kts | 240° |
| 2026-05-06 20:34 | 40.63834 | -85.81451 | 29975 ft | 275 kts | 242° |
| 2026-05-06 20:34 | 40.62711 | -85.83500 | 29968 ft | 275 kts | 242° |
| 2026-05-06 20:34 | 40.61596 | -85.85519 | 29972 ft | 276 kts | 241° |
| 2026-05-06 20:34 | 40.60473 | -85.87558 | 29979 ft | 275 kts | 242° |
| 2026-05-06 20:35 | 40.59349 | -85.89603 | 29976 ft | 276 kts | 241° |
| 2026-05-06 20:35 | 40.58225 | -85.91649 | 29981 ft | 277 kts | 241° |
| 2026-05-06 20:35 | 40.57109 | -85.93673 | 29979 ft | 275 kts | 241° |
| 2026-05-06 20:35 | 40.55976 | -85.95726 | 29981 ft | 276 kts | 242° |
| 2026-05-06 20:36 | 40.54845 | -85.97762 | 29981 ft | 277 kts | 242° |
| 2026-05-06 20:36 | 40.53710 | -85.99811 | 29984 ft | 276 kts | 242° |
| 2026-05-06 20:36 | 40.52596 | -86.01821 | 29978 ft | 274 kts | 241° |
| 2026-05-06 20:36 | 40.51475 | -86.03850 | 29988 ft | 275 kts | 241° |
| 2026-05-06 20:37 | 40.50357 | -86.05878 | 29986 ft | 275 kts | 242° |
| 2026-05-06 20:37 | 40.49228 | -86.07917 | 29988 ft | 274 kts | 242° |
| 2026-05-06 20:37 | 40.48119 | -86.09917 | 29981 ft | 274 kts | 241° |
| 2026-05-06 20:37 | 40.46992 | -86.11953 | 29986 ft | 276 kts | 242° |
| 2026-05-06 20:38 | 40.45854 | -86.14010 | 29979 ft | 276 kts | 242° |
| 2026-05-06 20:38 | 40.44733 | -86.16029 | 29980 ft | 274 kts | 241° |
| 2026-05-06 20:38 | 40.43612 | -86.18042 | 29980 ft | 273 kts | 242° |
| 2026-05-06 20:38 | 40.42504 | -86.20038 | 29975 ft | 274 kts | 242° |
| 2026-05-06 20:39 | 40.41369 | -86.22086 | 29980 ft | 277 kts | 242° |
| 2026-05-06 20:39 | 40.40229 | -86.24129 | 29968 ft | 277 kts | 241° |
| 2026-05-06 20:39 | 40.39104 | -86.26144 | 29965 ft | 275 kts | 241° |
| 2026-05-06 20:39 | 40.37970 | -86.28174 | 29964 ft | 276 kts | 241° |
| 2026-05-06 20:40 | 40.36836 | -86.30203 | 29972 ft | 274 kts | 242° |
| 2026-05-06 20:40 | 40.35711 | -86.32223 | 29966 ft | 274 kts | 240° |
| 2026-05-06 20:40 | 40.34598 | -86.34212 | 29966 ft | 274 kts | 242° |
| 2026-05-06 20:40 | 40.33470 | -86.36233 | 29964 ft | 274 kts | 241° |
| 2026-05-06 20:41 | 40.32341 | -86.38256 | 29965 ft | 273 kts | 242° |
| 2026-05-06 20:41 | 40.31229 | -86.40241 | 29970 ft | 272 kts | 242° |
| 2026-05-06 20:41 | 40.30095 | -86.42266 | 29975 ft | 274 kts | 242° |
| 2026-05-06 20:41 | 40.28985 | -86.44252 | 29978 ft | 273 kts | 241° |
| 2026-05-06 20:42 | 40.27858 | -86.46265 | 29981 ft | 274 kts | 240° |
| 2026-05-06 20:42 | 40.26730 | -86.48278 | 29978 ft | 274 kts | 241° |
| 2026-05-06 20:42 | 40.25613 | -86.50267 | 29982 ft | 274 kts | 240° |
| 2026-05-06 20:42 | 40.24486 | -86.52274 | 29985 ft | 274 kts | 240° |
| 2026-05-06 20:43 | 40.23354 | -86.54285 | 29984 ft | 274 kts | 241° |
| 2026-05-06 20:43 | 40.22219 | -86.56293 | 29984 ft | 273 kts | 240° |
| 2026-05-06 20:43 | 40.21102 | -86.58272 | 29983 ft | 273 kts | 241° |
| 2026-05-06 20:43 | 40.19976 | -86.60270 | 29985 ft | 273 kts | 242° |
| 2026-05-06 20:44 | 40.18858 | -86.62262 | 29984 ft | 275 kts | 242° |
| 2026-05-06 20:44 | 40.17717 | -86.64289 | 29979 ft | 275 kts | 241° |
| 2026-05-06 20:44 | 40.16583 | -86.66292 | 29982 ft | 274 kts | 240° |
| 2026-05-06 20:44 | 40.15458 | -86.68285 | 29977 ft | 273 kts | 240° |
| 2026-05-06 20:45 | 40.14328 | -86.70287 | 29982 ft | 275 kts | 240° |
| 2026-05-06 20:45 | 40.13191 | -86.72301 | 29978 ft | 275 kts | 240° |
| 2026-05-06 20:45 | 40.12072 | -86.74280 | 29978 ft | 275 kts | 240° |
| 2026-05-06 20:45 | 40.10939 | -86.76283 | 29977 ft | 272 kts | 240° |
| 2026-05-06 20:46 | 40.09813 | -86.78258 | 29985 ft | 271 kts | 240° |
| 2026-05-06 20:46 | 40.08694 | -86.80243 | 29986 ft | 270 kts | 241° |
| 2026-05-06 20:46 | 40.07589 | -86.82203 | 29985 ft | 272 kts | 240° |
| 2026-05-06 20:46 | 40.06459 | -86.84190 | 29986 ft | 273 kts | 240° |
| 2026-05-06 20:47 | 40.05334 | -86.86169 | 29990 ft | 271 kts | 240° |
| 2026-05-06 20:47 | 40.04208 | -86.88150 | 29990 ft | 270 kts | 240° |
| 2026-05-06 20:47 | 40.03097 | -86.90104 | 29986 ft | 271 kts | 241° |
| 2026-05-06 20:47 | 40.01968 | -86.92092 | 29992 ft | 273 kts | 241° |
| 2026-05-06 20:48 | 40.00830 | -86.94096 | 29991 ft | 276 kts | 240° |
| 2026-05-06 20:48 | 39.99703 | -86.96073 | 29991 ft | 273 kts | 241° |
| 2026-05-06 20:48 | 39.98566 | -86.98058 | 29990 ft | 274 kts | 241° |
| 2026-05-06 20:48 | 39.97424 | -87.00059 | 29988 ft | 275 kts | 240° |
| 2026-05-06 20:49 | 39.96289 | -87.02047 | 29989 ft | 273 kts | 240° |
| 2026-05-06 20:49 | 39.95162 | -87.04022 | 29986 ft | 272 kts | 240° |
| 2026-05-06 20:49 | 39.94036 | -87.05997 | 29982 ft | 274 kts | 241° |
| 2026-05-06 20:49 | 39.92905 | -87.07992 | 29982 ft | 273 kts | 240° |
| 2026-05-06 20:50 | 39.91783 | -87.09952 | 29984 ft | 273 kts | 240° |
| 2026-05-06 20:50 | 39.90638 | -87.11948 | 29984 ft | 275 kts | 240° |
| 2026-05-06 20:50 | 39.89497 | -87.13930 | 29984 ft | 274 kts | 240° |
| 2026-05-06 20:50 | 39.88363 | -87.15906 | 29980 ft | 273 kts | 240° |
| 2026-05-06 20:51 | 39.87225 | -87.17893 | 29984 ft | 274 kts | 240° |
| 2026-05-06 20:51 | 39.86086 | -87.19875 | 29976 ft | 273 kts | 239° |
| 2026-05-06 20:51 | 39.84952 | -87.21846 | 29974 ft | 271 kts | 239° |
| 2026-05-06 20:51 | 39.83817 | -87.23814 | 29980 ft | 274 kts | 239° |
| 2026-05-06 20:52 | 39.82687 | -87.25778 | 29979 ft | 274 kts | 240° |
| 2026-05-06 20:52 | 39.81547 | -87.27759 | 29974 ft | 271 kts | 240° |
| 2026-05-06 20:52 | 39.80411 | -87.29723 | 29976 ft | 273 kts | 239° |
| 2026-05-06 20:52 | 39.79270 | -87.31699 | 29981 ft | 273 kts | 240° |
| 2026-05-06 20:53 | 39.78129 | -87.33680 | 29974 ft | 273 kts | 240° |
| 2026-05-06 20:53 | 39.76990 | -87.35657 | 29977 ft | 273 kts | 239° |
| 2026-05-06 20:53 | 39.75854 | -87.37628 | 29980 ft | 274 kts | 240° |
| 2026-05-06 20:53 | 39.74727 | -87.39575 | 29977 ft | 272 kts | 240° |
| 2026-05-06 20:54 | 39.73590 | -87.41539 | 29981 ft | 272 kts | 239° |
| 2026-05-06 20:54 | 39.72451 | -87.43514 | 29981 ft | 273 kts | 239° |
| 2026-05-06 20:54 | 39.71315 | -87.45489 | 29980 ft | 271 kts | 239° |
| 2026-05-06 20:54 | 39.70193 | -87.47421 | 29989 ft | 271 kts | 240° |
| 2026-05-06 20:55 | 39.69059 | -87.49384 | 29992 ft | 274 kts | 239° |
| 2026-05-06 20:55 | 39.67915 | -87.51362 | 29994 ft | 273 kts | 239° |
| 2026-05-06 20:55 | 39.66766 | -87.53337 | 29995 ft | 274 kts | 239° |
| 2026-05-06 20:55 | 39.65622 | -87.55306 | 29999 ft | 273 kts | 240° |
| 2026-05-06 20:56 | 39.64485 | -87.57272 | 29996 ft | 272 kts | 239° |
| 2026-05-06 20:56 | 39.63349 | -87.59224 | 29999 ft | 271 kts | 239° |
| 2026-05-06 20:56 | 39.62226 | -87.61156 | 29997 ft | 273 kts | 240° |
| 2026-05-06 20:56 | 39.61083 | -87.63128 | 29996 ft | 274 kts | 239° |
| 2026-05-06 20:57 | 39.59936 | -87.65089 | 29997 ft | 271 kts | 240° |
| 2026-05-06 20:57 | 39.58794 | -87.67052 | 29997 ft | 274 kts | 240° |
| 2026-05-06 20:57 | 39.57639 | -87.69032 | 29992 ft | 274 kts | 240° |
| 2026-05-06 20:57 | 39.56497 | -87.70989 | 29993 ft | 273 kts | 240° |
| 2026-05-06 20:58 | 39.55351 | -87.72953 | 29990 ft | 273 kts | 239° |
| 2026-05-06 20:58 | 39.54202 | -87.74918 | 29988 ft | 273 kts | 239° |
| 2026-05-06 20:58 | 39.53075 | -87.76849 | 29991 ft | 271 kts | 239° |
| 2026-05-06 20:58 | 39.51935 | -87.78793 | 29985 ft | 272 kts | 240° |
| 2026-05-06 20:59 | 39.50795 | -87.80755 | 29982 ft | 273 kts | 239° |
| 2026-05-06 20:59 | 39.49652 | -87.82713 | 29980 ft | 272 kts | 239° |
| 2026-05-06 20:59 | 39.48429 | -87.84609 | 29975 ft | 276 kts | 235° |
| 2026-05-06 20:59 | 39.47096 | -87.86401 | 29981 ft | 277 kts | 234° |
| 2026-05-06 21:00 | 39.45752 | -87.88168 | 29980 ft | 279 kts | 234° |
| 2026-05-06 21:00 | 39.44399 | -87.89969 | 29981 ft | 277 kts | 235° |
| 2026-05-06 21:00 | 39.43066 | -87.91761 | 29980 ft | 275 kts | 234° |
| 2026-05-06 21:00 | 39.41768 | -87.93534 | 29981 ft | 275 kts | 235° |
| 2026-05-06 21:01 | 39.40451 | -87.95335 | 29980 ft | 277 kts | 234° |
| 2026-05-06 21:01 | 39.39132 | -87.97147 | 29982 ft | 276 kts | 236° |
| 2026-05-06 21:01 | 39.37815 | -87.98962 | 29984 ft | 276 kts | 235° |
| 2026-05-06 21:01 | 39.36497 | -88.00763 | 29979 ft | 276 kts | 236° |
| 2026-05-06 21:02 | 39.35173 | -88.02559 | 29980 ft | 276 kts | 236° |
| 2026-05-06 21:02 | 39.33842 | -88.04369 | 29984 ft | 276 kts | 236° |
| 2026-05-06 21:02 | 39.32523 | -88.06164 | 29991 ft | 275 kts | 235° |
| 2026-05-06 21:02 | 39.31221 | -88.07935 | 29999 ft | 276 kts | 234° |
| 2026-05-06 21:03 | 39.29895 | -88.09731 | 30001 ft | 275 kts | 235° |
| 2026-05-06 21:03 | 39.28578 | -88.11526 | 30005 ft | 275 kts | 234° |
| 2026-05-06 21:03 | 39.27258 | -88.13321 | 30007 ft | 276 kts | 236° |
| 2026-05-06 21:03 | 39.25946 | -88.15104 | 30009 ft | 278 kts | 236° |
| 2026-05-06 21:04 | 39.24614 | -88.16916 | 30005 ft | 276 kts | 234° |
| 2026-05-06 21:04 | 39.23293 | -88.18707 | 30004 ft | 275 kts | 234° |
| 2026-05-06 21:04 | 39.21968 | -88.20508 | 30009 ft | 278 kts | 235° |
| 2026-05-06 21:04 | 39.20655 | -88.22295 | 30008 ft | 277 kts | 235° |
| 2026-05-06 21:05 | 39.19339 | -88.24091 | 30010 ft | 274 kts | 235° |
| 2026-05-06 21:05 | 39.18017 | -88.25877 | 30010 ft | 277 kts | 234° |
| 2026-05-06 21:05 | 39.16685 | -88.27672 | 30010 ft | 276 kts | 234° |
| 2026-05-06 21:05 | 39.15366 | -88.29452 | 30010 ft | 275 kts | 235° |
| 2026-05-06 21:06 | 39.14047 | -88.31236 | 30012 ft | 275 kts | 235° |
| 2026-05-06 21:06 | 39.12716 | -88.33030 | 30015 ft | 277 kts | 234° |
| 2026-05-06 21:06 | 39.11392 | -88.34821 | 30012 ft | 276 kts | 236° |
| 2026-05-06 21:06 | 39.10069 | -88.36613 | 30015 ft | 277 kts | 234° |
| 2026-05-06 21:07 | 39.08748 | -88.38388 | 30013 ft | 277 kts | 234° |
| 2026-05-06 21:07 | 39.07415 | -88.40189 | 30011 ft | 276 kts | 234° |
| 2026-05-06 21:07 | 39.06092 | -88.41969 | 30006 ft | 275 kts | 235° |
| 2026-05-06 21:07 | 39.04782 | -88.43746 | 30004 ft | 277 kts | 235° |
| 2026-05-06 21:08 | 39.03450 | -88.45544 | 30001 ft | 279 kts | 235° |
| 2026-05-06 21:08 | 39.02113 | -88.47344 | 29995 ft | 278 kts | 235° |
| 2026-05-06 21:08 | 39.00784 | -88.49128 | 29997 ft | 277 kts | 236° |
| 2026-05-06 21:08 | 38.99443 | -88.50914 | 29997 ft | 277 kts | 235° |
| 2026-05-06 21:09 | 38.98104 | -88.52706 | 30000 ft | 277 kts | 234° |
| 2026-05-06 21:09 | 38.96764 | -88.54497 | 30000 ft | 278 kts | 236° |
| 2026-05-06 21:09 | 38.95442 | -88.56275 | 29997 ft | 278 kts | 236° |
| 2026-05-06 21:09 | 38.94103 | -88.58068 | 30000 ft | 279 kts | 234° |
| 2026-05-06 21:10 | 38.92764 | -88.59860 | 30001 ft | 278 kts | 234° |
| 2026-05-06 21:10 | 38.91425 | -88.61647 | 30003 ft | 276 kts | 234° |
| 2026-05-06 21:10 | 38.90094 | -88.63429 | 30003 ft | 278 kts | 236° |
| 2026-05-06 21:10 | 38.88743 | -88.65238 | 30006 ft | 282 kts | 234° |
| 2026-05-06 21:11 | 38.87394 | -88.67028 | 30006 ft | 280 kts | 234° |
| 2026-05-06 21:11 | 38.86051 | -88.68814 | 30003 ft | 276 kts | 234° |
| 2026-05-06 21:11 | 38.84719 | -88.70594 | 30001 ft | 277 kts | 235° |
| 2026-05-06 21:11 | 38.83399 | -88.72363 | 30004 ft | 279 kts | 234° |
| 2026-05-06 21:12 | 38.82057 | -88.74157 | 30005 ft | 276 kts | 235° |
| 2026-05-06 21:12 | 38.80720 | -88.75935 | 30007 ft | 277 kts | 235° |
| 2026-05-06 21:12 | 38.79380 | -88.77721 | 30011 ft | 278 kts | 234° |
| 2026-05-06 21:12 | 38.78058 | -88.79491 | 30014 ft | 278 kts | 234° |
| 2026-05-06 21:13 | 38.76718 | -88.81270 | 30017 ft | 277 kts | 234° |
| 2026-05-06 21:13 | 38.75380 | -88.83045 | 30021 ft | 278 kts | 234° |
| 2026-05-06 21:13 | 38.74032 | -88.84837 | 30020 ft | 278 kts | 234° |
| 2026-05-06 21:13 | 38.72691 | -88.86619 | 30026 ft | 278 kts | 235° |
| 2026-05-06 21:14 | 38.71363 | -88.88380 | 30029 ft | 277 kts | 234° |
| 2026-05-06 21:14 | 38.70018 | -88.90166 | 30031 ft | 278 kts | 234° |
| 2026-05-06 21:14 | 38.68670 | -88.91959 | 30032 ft | 278 kts | 235° |
| 2026-05-06 21:14 | 38.67344 | -88.93721 | 30036 ft | 280 kts | 234° |
| 2026-05-06 21:15 | 38.65989 | -88.95502 | 30036 ft | 278 kts | 234° |
| 2026-05-06 21:15 | 38.64636 | -88.97286 | 30038 ft | 279 kts | 235° |
| 2026-05-06 21:15 | 38.63282 | -88.99075 | 30039 ft | 280 kts | 235° |
| 2026-05-06 21:15 | 38.61947 | -89.00845 | 30039 ft | 279 kts | 234° |
| 2026-05-06 21:16 | 38.60595 | -89.02632 | 30039 ft | 278 kts | 234° |
| 2026-05-06 21:16 | 38.59245 | -89.04422 | 30038 ft | 279 kts | 234° |
| 2026-05-06 21:16 | 38.57898 | -89.06194 | 30038 ft | 277 kts | 234° |
| 2026-05-06 21:16 | 38.56568 | -89.07941 | 30038 ft | 279 kts | 235° |
| 2026-05-06 21:17 | 38.55214 | -89.09727 | 30040 ft | 279 kts | 234° |
| 2026-05-06 21:17 | 38.53856 | -89.11510 | 30037 ft | 279 kts | 234° |
| 2026-05-06 21:17 | 38.52505 | -89.13287 | 30041 ft | 279 kts | 235° |
| 2026-05-06 21:17 | 38.51159 | -89.15063 | 30037 ft | 278 kts | 235° |
| 2026-05-06 21:18 | 38.49813 | -89.16843 | 30036 ft | 279 kts | 234° |
| 2026-05-06 21:18 | 38.48473 | -89.18603 | 30034 ft | 279 kts | 234° |
| 2026-05-06 21:18 | 38.47120 | -89.20382 | 30036 ft | 280 kts | 234° |
| 2026-05-06 21:18 | 38.45767 | -89.22151 | 30033 ft | 279 kts | 234° |
| 2026-05-06 21:19 | 38.44412 | -89.23928 | 30031 ft | 278 kts | 234° |
| 2026-05-06 21:19 | 38.43066 | -89.25710 | 30027 ft | 280 kts | 234° |
| 2026-05-06 21:19 | 38.41708 | -89.27483 | 30026 ft | 279 kts | 234° |
| 2026-05-06 21:19 | 38.40353 | -89.29256 | 30027 ft | 280 kts | 234° |
| 2026-05-06 21:20 | 38.39011 | -89.31012 | 30025 ft | 280 kts | 234° |
| 2026-05-06 21:20 | 38.38103 | -89.32204 | 30026 ft | 278 kts | 234° |
| 2026-05-06 21:20 | 38.36302 | -89.34558 | 30026 ft | 279 kts | 234° |
| 2026-05-06 21:20 | 38.34943 | -89.36339 | 30025 ft | 280 kts | 234° |
| 2026-05-06 21:21 | 38.33583 | -89.38118 | 30027 ft | 279 kts | 234° |
| 2026-05-06 21:21 | 38.32245 | -89.39872 | 30027 ft | 280 kts | 234° |
| 2026-05-06 21:21 | 38.30884 | -89.41651 | 30027 ft | 281 kts | 234° |
| 2026-05-06 21:21 | 38.29513 | -89.43424 | 30027 ft | 281 kts | 234° |
| 2026-05-06 21:22 | 38.28141 | -89.45206 | 30025 ft | 281 kts | 233° |
| 2026-05-06 21:22 | 38.26785 | -89.46969 | 30026 ft | 279 kts | 233° |
| 2026-05-06 21:22 | 38.25427 | -89.48740 | 30027 ft | 280 kts | 234° |
| 2026-05-06 21:22 | 38.24073 | -89.50498 | 30027 ft | 282 kts | 234° |
| 2026-05-06 21:23 | 38.22705 | -89.52271 | 30029 ft | 279 kts | 234° |
| 2026-05-06 21:23 | 38.21333 | -89.54040 | 30026 ft | 281 kts | 234° |
| 2026-05-06 21:23 | 38.19967 | -89.55818 | 30030 ft | 281 kts | 234° |
| 2026-05-06 21:23 | 38.18609 | -89.57597 | 30028 ft | 280 kts | 234° |
| 2026-05-06 21:24 | 38.17241 | -89.59370 | 30029 ft | 282 kts | 234° |
| 2026-05-06 21:24 | 38.15865 | -89.61146 | 30029 ft | 284 kts | 234° |
| 2026-05-06 21:24 | 38.14505 | -89.62910 | 30029 ft | 283 kts | 234° |
| 2026-05-06 21:24 | 38.13125 | -89.64694 | 30031 ft | 282 kts | 233° |
| 2026-05-06 21:25 | 38.11744 | -89.66484 | 30031 ft | 284 kts | 234° |
| 2026-05-06 21:25 | 38.10350 | -89.68279 | 30029 ft | 284 kts | 233° |
| 2026-05-06 21:25 | 38.08992 | -89.70033 | 30028 ft | 281 kts | 233° |
| 2026-05-06 21:25 | 38.07622 | -89.71805 | 30031 ft | 283 kts | 233° |
| 2026-05-06 21:26 | 38.06238 | -89.73596 | 30032 ft | 284 kts | 233° |
| 2026-05-06 21:26 | 38.04860 | -89.75378 | 30034 ft | 283 kts | 234° |
| 2026-05-06 21:26 | 38.03478 | -89.77163 | 30033 ft | 284 kts | 234° |
| 2026-05-06 21:26 | 38.02094 | -89.78946 | 30036 ft | 283 kts | 233° |
| 2026-05-06 21:27 | 38.00714 | -89.80726 | 30036 ft | 283 kts | 233° |
| 2026-05-06 21:27 | 37.99329 | -89.82510 | 30036 ft | 282 kts | 233° |
| 2026-05-06 21:27 | 37.97956 | -89.84278 | 30039 ft | 284 kts | 233° |
| 2026-05-06 21:27 | 37.96573 | -89.86059 | 30030 ft | 284 kts | 233° |
| 2026-05-06 21:28 | 37.95180 | -89.87842 | 30039 ft | 284 kts | 233° |
| 2026-05-06 21:28 | 37.93796 | -89.89619 | 30037 ft | 283 kts | 233° |
| 2026-05-06 21:28 | 37.92419 | -89.91386 | 30043 ft | 285 kts | 233° |
| 2026-05-06 21:28 | 37.91024 | -89.93171 | 30034 ft | 284 kts | 233° |
| 2026-05-06 21:29 | 37.89648 | -89.94929 | 30038 ft | 284 kts | 234° |
| 2026-05-06 21:29 | 37.88260 | -89.96720 | 30034 ft | 285 kts | 233° |
| 2026-05-06 21:29 | 37.86865 | -89.98506 | 30045 ft | 284 kts | 233° |
| 2026-05-06 21:29 | 37.85486 | -90.00261 | 30030 ft | 283 kts | 233° |
| 2026-05-06 21:30 | 37.84096 | -90.02020 | 30033 ft | 283 kts | 233° |
| 2026-05-06 21:30 | 37.82706 | -90.03783 | 30034 ft | 283 kts | 233° |
| 2026-05-06 21:30 | 37.81318 | -90.05566 | 30038 ft | 285 kts | 234° |
| 2026-05-06 21:30 | 37.79930 | -90.07349 | 30037 ft | 281 kts | 233° |
| 2026-05-06 21:31 | 37.78577 | -90.09085 | 30023 ft | 280 kts | 233° |
| 2026-05-06 21:31 | 37.77205 | -90.10837 | 30020 ft | 282 kts | 234° |
| 2026-05-06 21:31 | 37.75813 | -90.12620 | 30028 ft | 285 kts | 233° |
| 2026-05-06 21:31 | 37.74424 | -90.14392 | 30023 ft | 283 kts | 233° |
| 2026-05-06 21:32 | 37.73035 | -90.16157 | 30017 ft | 285 kts | 234° |
| 2026-05-06 21:32 | 37.70260 | -90.19685 | 30018 ft | 282 kts | 233° |
| 2026-05-06 21:32 | 37.68879 | -90.21446 | 30021 ft | 283 kts | 233° |
| 2026-05-06 21:33 | 37.67522 | -90.23245 | 30018 ft | 281 kts | 236° |
| 2026-05-06 21:33 | 37.66345 | -90.25164 | 30026 ft | 279 kts | 240° |
| 2026-05-06 21:33 | 37.65260 | -90.27170 | 30018 ft | 276 kts | 242° |
| 2026-05-06 21:33 | 37.64191 | -90.29224 | 30029 ft | 279 kts | 242° |
| 2026-05-06 21:34 | 37.63143 | -90.31242 | 30028 ft | 278 kts | 241° |
| 2026-05-06 21:34 | 37.62064 | -90.33280 | 30028 ft | 276 kts | 242° |
| 2026-05-06 21:34 | 37.60995 | -90.35284 | 30023 ft | 277 kts | 241° |
| 2026-05-06 21:34 | 37.59916 | -90.37286 | 30020 ft | 277 kts | 241° |
| 2026-05-06 21:35 | 37.58845 | -90.39304 | 30017 ft | 277 kts | 241° |
| 2026-05-06 21:35 | 37.57766 | -90.41322 | 30017 ft | 279 kts | 241° |
| 2026-05-06 21:35 | 37.56685 | -90.43343 | 30019 ft | 279 kts | 241° |
| 2026-05-06 21:35 | 37.55602 | -90.45364 | 30019 ft | 278 kts | 241° |
| 2026-05-06 21:36 | 37.54533 | -90.47351 | 30018 ft | 277 kts | 242° |
| 2026-05-06 21:36 | 37.53450 | -90.49370 | 30015 ft | 279 kts | 241° |
| 2026-05-06 21:36 | 37.52361 | -90.51390 | 30019 ft | 279 kts | 242° |
| 2026-05-06 21:36 | 37.51278 | -90.53409 | 30021 ft | 278 kts | 241° |
| 2026-05-06 21:37 | 37.50194 | -90.55418 | 30022 ft | 277 kts | 242° |
| 2026-05-06 21:37 | 37.49120 | -90.57429 | 30015 ft | 276 kts | 242° |
| 2026-05-06 21:37 | 37.48047 | -90.59413 | 30019 ft | 276 kts | 241° |
| 2026-05-06 21:37 | 37.46971 | -90.61408 | 30015 ft | 277 kts | 242° |
| 2026-05-06 21:38 | 37.45890 | -90.63408 | 30015 ft | 276 kts | 242° |
| 2026-05-06 21:38 | 37.44819 | -90.65402 | 30021 ft | 277 kts | 241° |
| 2026-05-06 21:38 | 37.43738 | -90.67407 | 30011 ft | 277 kts | 240° |
| 2026-05-06 21:38 | 37.42656 | -90.69402 | 30014 ft | 275 kts | 240° |
| 2026-05-06 21:39 | 37.41586 | -90.71387 | 30014 ft | 275 kts | 240° |
| 2026-05-06 21:39 | 37.40506 | -90.73390 | 30013 ft | 278 kts | 241° |
| 2026-05-06 21:39 | 37.39415 | -90.75401 | 30012 ft | 278 kts | 241° |
| 2026-05-06 21:39 | 37.38329 | -90.77399 | 30012 ft | 277 kts | 240° |
| 2026-05-06 21:40 | 37.37263 | -90.79376 | 30015 ft | 277 kts | 240° |
| 2026-05-06 21:40 | 37.36182 | -90.81385 | 30015 ft | 277 kts | 241° |
| 2026-05-06 21:40 | 37.35095 | -90.83382 | 30011 ft | 276 kts | 240° |
| 2026-05-06 21:40 | 37.34009 | -90.85375 | 30014 ft | 276 kts | 240° |
| 2026-05-06 21:41 | 37.32938 | -90.87350 | 30010 ft | 277 kts | 241° |
| 2026-05-06 21:41 | 37.31857 | -90.89357 | 30010 ft | 278 kts | 240° |
| 2026-05-06 21:41 | 37.30770 | -90.91368 | 30009 ft | 277 kts | 241° |
| 2026-05-06 21:41 | 37.29691 | -90.93354 | 30005 ft | 276 kts | 241° |
| 2026-05-06 21:42 | 37.28603 | -90.95353 | 30011 ft | 278 kts | 241° |
| 2026-05-06 21:42 | 37.27511 | -90.97357 | 30012 ft | 278 kts | 240° |
| 2026-05-06 21:42 | 37.26423 | -90.99352 | 30011 ft | 276 kts | 241° |
| 2026-05-06 21:42 | 37.25330 | -91.01350 | 30015 ft | 277 kts | 241° |
| 2026-05-06 21:43 | 37.24241 | -91.03357 | 30021 ft | 279 kts | 241° |
| 2026-05-06 21:43 | 37.23148 | -91.05363 | 30020 ft | 279 kts | 240° |
| 2026-05-06 21:43 | 37.22068 | -91.07338 | 30024 ft | 277 kts | 241° |
| 2026-05-06 21:43 | 37.20974 | -91.09338 | 30022 ft | 278 kts | 240° |
| 2026-05-06 21:44 | 37.19877 | -91.11339 | 30021 ft | 278 kts | 241° |
| 2026-05-06 21:44 | 37.18791 | -91.13316 | 30029 ft | 279 kts | 241° |
| 2026-05-06 21:44 | 37.17691 | -91.15324 | 30025 ft | 277 kts | 240° |
| 2026-05-06 21:44 | 37.16597 | -91.17310 | 30021 ft | 278 kts | 240° |
| 2026-05-06 21:45 | 37.15503 | -91.19308 | 30021 ft | 278 kts | 241° |
| 2026-05-06 21:45 | 37.14427 | -91.21281 | 30026 ft | 277 kts | 241° |
| 2026-05-06 21:45 | 37.13332 | -91.23271 | 30025 ft | 278 kts | 241° |
| 2026-05-06 21:45 | 37.12230 | -91.25272 | 30024 ft | 279 kts | 240° |
| 2026-05-06 21:46 | 37.11135 | -91.27264 | 30024 ft | 277 kts | 240° |
| 2026-05-06 21:46 | 37.10047 | -91.29250 | 30026 ft | 278 kts | 241° |
| 2026-05-06 21:46 | 37.08944 | -91.31260 | 30025 ft | 279 kts | 240° |
| 2026-05-06 21:46 | 37.07844 | -91.33253 | 30021 ft | 278 kts | 241° |
| 2026-05-06 21:47 | 37.06753 | -91.35234 | 30023 ft | 281 kts | 241° |
| 2026-05-06 21:47 | 37.05640 | -91.37248 | 30028 ft | 279 kts | 240° |
| 2026-05-06 21:47 | 37.04535 | -91.39243 | 30027 ft | 278 kts | 240° |
| 2026-05-06 21:47 | 37.03445 | -91.41230 | 30029 ft | 277 kts | 241° |
| 2026-05-06 21:48 | 37.02365 | -91.43192 | 30028 ft | 277 kts | 240° |
| 2026-05-06 21:48 | 37.01261 | -91.45180 | 30022 ft | 278 kts | 240° |
| 2026-05-06 21:48 | 37.00157 | -91.47183 | 30024 ft | 279 kts | 240° |
| 2026-05-06 21:48 | 36.99056 | -91.49178 | 30026 ft | 278 kts | 240° |
| 2026-05-06 21:49 | 36.97962 | -91.51157 | 30027 ft | 279 kts | 241° |
| 2026-05-06 21:49 | 36.96847 | -91.53157 | 30025 ft | 279 kts | 240° |
| 2026-05-06 21:49 | 36.95740 | -91.55148 | 30029 ft | 280 kts | 241° |
| 2026-05-06 21:49 | 36.94636 | -91.57140 | 30028 ft | 279 kts | 240° |
| 2026-05-06 21:50 | 36.93546 | -91.59109 | 30024 ft | 279 kts | 240° |
| 2026-05-06 21:50 | 36.92443 | -91.61108 | 30022 ft | 279 kts | 240° |
| 2026-05-06 21:50 | 36.91334 | -91.63115 | 30027 ft | 279 kts | 240° |
| 2026-05-06 21:50 | 36.90223 | -91.65122 | 30030 ft | 281 kts | 240° |
| 2026-05-06 21:51 | 36.89120 | -91.67108 | 30030 ft | 281 kts | 240° |
| 2026-05-06 21:51 | 36.88010 | -91.69106 | 30027 ft | 279 kts | 240° |
| 2026-05-06 21:51 | 36.86905 | -91.71092 | 30036 ft | 279 kts | 239° |
| 2026-05-06 21:51 | 36.85796 | -91.73082 | 30035 ft | 279 kts | 240° |
| 2026-05-06 21:52 | 36.84685 | -91.75068 | 30042 ft | 280 kts | 239° |
| 2026-05-06 21:52 | 36.83570 | -91.77063 | 30040 ft | 281 kts | 240° |
| 2026-05-06 21:52 | 36.82457 | -91.79054 | 30037 ft | 279 kts | 241° |
| 2026-05-06 21:52 | 36.81348 | -91.81042 | 30038 ft | 279 kts | 240° |
| 2026-05-06 21:53 | 36.80238 | -91.83035 | 30042 ft | 281 kts | 240° |
| 2026-05-06 21:53 | 36.79114 | -91.85042 | 30035 ft | 281 kts | 240° |
| 2026-05-06 21:53 | 36.78009 | -91.87016 | 30035 ft | 281 kts | 239° |
| 2026-05-06 21:53 | 36.76895 | -91.89007 | 30036 ft | 279 kts | 240° |
| 2026-05-06 21:54 | 36.75784 | -91.90990 | 30028 ft | 279 kts | 241° |
| 2026-05-06 21:54 | 36.74666 | -91.92987 | 30027 ft | 281 kts | 239° |
| 2026-05-06 21:54 | 36.73547 | -91.94983 | 30026 ft | 280 kts | 241° |
| 2026-05-06 21:54 | 36.72437 | -91.96962 | 30023 ft | 279 kts | 239° |
| 2026-05-06 21:55 | 36.71334 | -91.98930 | 30028 ft | 281 kts | 239° |
| 2026-05-06 21:55 | 36.70211 | -92.00916 | 30020 ft | 279 kts | 239° |
| 2026-05-06 21:55 | 36.69096 | -92.02890 | 30015 ft | 279 kts | 239° |
| 2026-05-06 21:55 | 36.67993 | -92.04852 | 30016 ft | 280 kts | 240° |
| 2026-05-06 21:56 | 36.66862 | -92.06865 | 30022 ft | 281 kts | 240° |
| 2026-05-06 21:56 | 36.65753 | -92.08839 | 30020 ft | 281 kts | 240° |
| 2026-05-06 21:56 | 36.64634 | -92.10829 | 30018 ft | 280 kts | 240° |
| 2026-05-06 21:56 | 36.63506 | -92.12833 | 30019 ft | 282 kts | 240° |
| 2026-05-06 21:57 | 36.62379 | -92.14835 | 30022 ft | 282 kts | 239° |
| 2026-05-06 21:57 | 36.61268 | -92.16813 | 30023 ft | 281 kts | 240° |
| 2026-05-06 21:57 | 36.60143 | -92.18804 | 30024 ft | 282 kts | 239° |
| 2026-05-06 21:57 | 36.59020 | -92.20793 | 30023 ft | 281 kts | 240° |
| 2026-05-06 21:58 | 36.57888 | -92.22794 | 30021 ft | 282 kts | 240° |
| 2026-05-06 21:58 | 36.56772 | -92.24772 | 30020 ft | 282 kts | 240° |
| 2026-05-06 21:58 | 36.55650 | -92.26759 | 30025 ft | 281 kts | 239° |
| 2026-05-06 21:58 | 36.54520 | -92.28756 | 30023 ft | 283 kts | 240° |
| 2026-05-06 21:59 | 36.53385 | -92.30756 | 30027 ft | 282 kts | 240° |
| 2026-05-06 21:59 | 36.52267 | -92.32723 | 30023 ft | 281 kts | 239° |
| 2026-05-06 21:59 | 36.51141 | -92.34708 | 30024 ft | 282 kts | 239° |
| 2026-05-06 21:59 | 36.50011 | -92.36698 | 30025 ft | 282 kts | 240° |
| 2026-05-06 22:00 | 36.48875 | -92.38697 | 30026 ft | 282 kts | 239° |
| 2026-05-06 22:00 | 36.47755 | -92.40666 | 30028 ft | 283 kts | 239° |
| 2026-05-06 22:00 | 36.46615 | -92.42667 | 30025 ft | 283 kts | 240° |
| 2026-05-06 22:00 | 36.45476 | -92.44666 | 30028 ft | 283 kts | 240° |
| 2026-05-06 22:01 | 36.44349 | -92.46643 | 30036 ft | 282 kts | 239° |
| 2026-05-06 22:01 | 36.43209 | -92.48637 | 30041 ft | 282 kts | 239° |
| 2026-05-06 22:01 | 36.42087 | -92.50605 | 30040 ft | 281 kts | 240° |
| 2026-05-06 22:01 | 36.40963 | -92.52587 | 30040 ft | 281 kts | 240° |
| 2026-05-06 22:02 | 36.39832 | -92.54584 | 30043 ft | 283 kts | 240° |
| 2026-05-06 22:02 | 36.38699 | -92.56573 | 30042 ft | 283 kts | 239° |
| 2026-05-06 22:02 | 36.37575 | -92.58535 | 30040 ft | 281 kts | 239° |
| 2026-05-06 22:02 | 36.36439 | -92.60519 | 30043 ft | 283 kts | 239° |
| 2026-05-06 22:03 | 36.35296 | -92.62516 | 30042 ft | 282 kts | 240° |
| 2026-05-06 22:03 | 36.34156 | -92.64501 | 30045 ft | 282 kts | 239° |
| 2026-05-06 22:03 | 36.33023 | -92.66476 | 30045 ft | 283 kts | 239° |
| 2026-05-06 22:03 | 36.31882 | -92.68469 | 30046 ft | 284 kts | 240° |
| 2026-05-06 22:04 | 36.30738 | -92.70466 | 30041 ft | 284 kts | 240° |
| 2026-05-06 22:04 | 36.29615 | -92.72421 | 30035 ft | 282 kts | 239° |
| 2026-05-06 22:04 | 36.28475 | -92.74409 | 30034 ft | 282 kts | 240° |
| 2026-05-06 22:04 | 36.27340 | -92.76389 | 30038 ft | 283 kts | 240° |
| 2026-05-06 22:05 | 36.26196 | -92.78381 | 30037 ft | 284 kts | 239° |
| 2026-05-06 22:05 | 36.25066 | -92.80344 | 30034 ft | 284 kts | 239° |
| 2026-05-06 22:05 | 36.23923 | -92.82332 | 30030 ft | 283 kts | 239° |
| 2026-05-06 22:05 | 36.22783 | -92.84314 | 30028 ft | 283 kts | 240° |
| 2026-05-06 22:06 | 36.21637 | -92.86304 | 30028 ft | 284 kts | 239° |
| 2026-05-06 22:06 | 36.20490 | -92.88294 | 30025 ft | 283 kts | 240° |
| 2026-05-06 22:06 | 36.19342 | -92.90277 | 30025 ft | 282 kts | 239° |
| 2026-05-06 22:06 | 36.18198 | -92.92257 | 30026 ft | 284 kts | 240° |
| 2026-05-06 22:07 | 36.17064 | -92.94232 | 30027 ft | 285 kts | 240° |
| 2026-05-06 22:07 | 36.15914 | -92.96231 | 30026 ft | 282 kts | 240° |
| 2026-05-06 22:07 | 36.14775 | -92.98202 | 30029 ft | 282 kts | 239° |
| 2026-05-06 22:07 | 36.13631 | -93.00179 | 30028 ft | 283 kts | 240° |
| 2026-05-06 22:08 | 36.12501 | -93.02143 | 30029 ft | 284 kts | 240° |
| 2026-05-06 22:08 | 36.11351 | -93.04138 | 30029 ft | 285 kts | 240° |
| 2026-05-06 22:08 | 36.10193 | -93.06139 | 30036 ft | 284 kts | 240° |
| 2026-05-06 22:08 | 36.09055 | -93.08099 | 30040 ft | 282 kts | 239° |
| 2026-05-06 22:09 | 36.07910 | -93.10075 | 30041 ft | 283 kts | 240° |
| 2026-05-06 22:09 | 36.06763 | -93.12052 | 30041 ft | 284 kts | 239° |
| 2026-05-06 22:09 | 36.05606 | -93.14039 | 30040 ft | 285 kts | 239° |
| 2026-05-06 22:09 | 36.04449 | -93.16029 | 30039 ft | 285 kts | 240° |
| 2026-05-06 22:10 | 36.03292 | -93.18023 | 30035 ft | 285 kts | 240° |
| 2026-05-06 22:10 | 36.02150 | -93.19988 | 30032 ft | 285 kts | 239° |
| 2026-05-06 22:10 | 36.00996 | -93.21975 | 30034 ft | 283 kts | 239° |
| 2026-05-06 22:10 | 35.99842 | -93.23959 | 30031 ft | 285 kts | 239° |
| 2026-05-06 22:11 | 35.98679 | -93.25951 | 30031 ft | 286 kts | 239° |
| 2026-05-06 22:11 | 35.97528 | -93.27918 | 30031 ft | 285 kts | 239° |
| 2026-05-06 22:11 | 35.96376 | -93.29890 | 30029 ft | 283 kts | 239° |
| 2026-05-06 22:11 | 35.95216 | -93.31884 | 30028 ft | 284 kts | 240° |
| 2026-05-06 22:12 | 35.94064 | -93.33865 | 30029 ft | 285 kts | 239° |
| 2026-05-06 22:12 | 35.92916 | -93.35832 | 30029 ft | 283 kts | 239° |
| 2026-05-06 22:12 | 35.91768 | -93.37788 | 30026 ft | 283 kts | 239° |
| 2026-05-06 22:12 | 35.90613 | -93.39762 | 30023 ft | 285 kts | 239° |
| 2026-05-06 22:13 | 35.89447 | -93.41759 | 30020 ft | 285 kts | 240° |
| 2026-05-06 22:13 | 35.88298 | -93.43716 | 30021 ft | 284 kts | 239° |
| 2026-05-06 22:13 | 35.87138 | -93.45693 | 30020 ft | 284 kts | 239° |
| 2026-05-06 22:13 | 35.85981 | -93.47676 | 30021 ft | 285 kts | 239° |
| 2026-05-06 22:14 | 35.84818 | -93.49665 | 30020 ft | 286 kts | 240° |
| 2026-05-06 22:14 | 35.83653 | -93.51653 | 30021 ft | 286 kts | 240° |
| 2026-05-06 22:14 | 35.82501 | -93.53606 | 30020 ft | 286 kts | 240° |
| 2026-05-06 22:14 | 35.81323 | -93.55606 | 30022 ft | 285 kts | 240° |
| 2026-05-06 22:15 | 35.80163 | -93.57585 | 30021 ft | 286 kts | 240° |
| 2026-05-06 22:15 | 35.79006 | -93.59552 | 30018 ft | 284 kts | 239° |
| 2026-05-06 22:15 | 35.77850 | -93.61519 | 30019 ft | 284 kts | 239° |
| 2026-05-06 22:15 | 35.76687 | -93.63496 | 30019 ft | 285 kts | 239° |
| 2026-05-06 22:16 | 35.75530 | -93.65456 | 30016 ft | 287 kts | 238° |
| 2026-05-06 22:16 | 35.74361 | -93.67441 | 30018 ft | 287 kts | 239° |
| 2026-05-06 22:16 | 35.73190 | -93.69428 | 30018 ft | 286 kts | 239° |
| 2026-05-06 22:16 | 35.72022 | -93.71407 | 30019 ft | 286 kts | 239° |
| 2026-05-06 22:17 | 35.70864 | -93.73368 | 30016 ft | 283 kts | 238° |
| 2026-05-06 22:17 | 35.69698 | -93.75339 | 30016 ft | 285 kts | 238° |
| 2026-05-06 22:17 | 35.68538 | -93.77296 | 30016 ft | 287 kts | 239° |
| 2026-05-06 22:17 | 35.67360 | -93.79286 | 30016 ft | 287 kts | 239° |
| 2026-05-06 22:18 | 35.66187 | -93.81266 | 30016 ft | 286 kts | 238° |
| 2026-05-06 22:18 | 35.65015 | -93.83241 | 30014 ft | 284 kts | 239° |
| 2026-05-06 22:18 | 35.63864 | -93.85179 | 30015 ft | 285 kts | 239° |
| 2026-05-06 22:18 | 35.62687 | -93.87167 | 30015 ft | 287 kts | 239° |
| 2026-05-06 22:19 | 35.61515 | -93.89140 | 30016 ft | 287 kts | 238° |
| 2026-05-06 22:19 | 35.60342 | -93.91112 | 30014 ft | 285 kts | 239° |
| 2026-05-06 22:19 | 35.59178 | -93.93073 | 30013 ft | 286 kts | 238° |
| 2026-05-06 22:19 | 35.57994 | -93.95069 | 30011 ft | 286 kts | 239° |
| 2026-05-06 22:20 | 35.56824 | -93.97044 | 30014 ft | 287 kts | 239° |
| 2026-05-06 22:20 | 35.55653 | -93.99013 | 30016 ft | 286 kts | 239° |
| 2026-05-06 22:20 | 35.54481 | -94.00976 | 30011 ft | 285 kts | 238° |
| 2026-05-06 22:20 | 35.53313 | -94.02937 | 30011 ft | 287 kts | 239° |
| 2026-05-06 22:21 | 35.52128 | -94.04926 | 30017 ft | 288 kts | 238° |
| 2026-05-06 22:21 | 35.50948 | -94.06902 | 30016 ft | 288 kts | 238° |
| 2026-05-06 22:21 | 35.49769 | -94.08870 | 30014 ft | 285 kts | 239° |
| 2026-05-06 22:21 | 35.48598 | -94.10834 | 30014 ft | 286 kts | 238° |
| 2026-05-06 22:22 | 35.47430 | -94.12790 | 30015 ft | 286 kts | 239° |
| 2026-05-06 22:22 | 35.46254 | -94.14755 | 30010 ft | 287 kts | 238° |
| 2026-05-06 22:22 | 35.45071 | -94.16732 | 30012 ft | 287 kts | 239° |
| 2026-05-06 22:22 | 35.43890 | -94.18705 | 30008 ft | 287 kts | 238° |
| 2026-05-06 22:23 | 35.42702 | -94.20689 | 30008 ft | 288 kts | 238° |
| 2026-05-06 22:23 | 35.41533 | -94.22642 | 30008 ft | 287 kts | 238° |
| 2026-05-06 22:23 | 35.40346 | -94.24623 | 30009 ft | 288 kts | 238° |
| 2026-05-06 22:23 | 35.39131 | -94.26593 | 30008 ft | 291 kts | 237° |
| 2026-05-06 22:24 | 35.37762 | -94.28427 | 30010 ft | 295 kts | 231° |
| 2026-05-06 22:24 | 35.36239 | -94.30117 | 30011 ft | 294 kts | 229° |
| 2026-05-06 22:24 | 35.34681 | -94.31757 | 30010 ft | 296 kts | 229° |
| 2026-05-06 22:24 | 35.33144 | -94.33386 | 30010 ft | 296 kts | 229° |
| 2026-05-06 22:25 | 35.31598 | -94.35039 | 30011 ft | 294 kts | 229° |
| 2026-05-06 22:25 | 35.30054 | -94.36701 | 30011 ft | 297 kts | 229° |
| 2026-05-06 22:25 | 35.28503 | -94.38382 | 30009 ft | 298 kts | 229° |
| 2026-05-06 22:25 | 35.26954 | -94.40057 | 30009 ft | 295 kts | 229° |
| 2026-05-06 22:26 | 35.25424 | -94.41707 | 30009 ft | 294 kts | 229° |
| 2026-05-06 22:26 | 35.23886 | -94.43372 | 30009 ft | 296 kts | 229° |
| 2026-05-06 22:26 | 35.22351 | -94.45039 | 30010 ft | 297 kts | 230° |
| 2026-05-06 22:26 | 35.20804 | -94.46720 | 30010 ft | 296 kts | 229° |
| 2026-05-06 22:27 | 35.19277 | -94.48371 | 30010 ft | 295 kts | 230° |
| 2026-05-06 22:27 | 35.17725 | -94.50052 | 30011 ft | 295 kts | 229° |
| 2026-05-06 22:27 | 35.16203 | -94.51698 | 30013 ft | 297 kts | 230° |
| 2026-05-06 22:27 | 35.14658 | -94.53366 | 30017 ft | 296 kts | 230° |
| 2026-05-06 22:28 | 35.13116 | -94.55029 | 30017 ft | 296 kts | 230° |
| 2026-05-06 22:28 | 35.11567 | -94.56699 | 30016 ft | 297 kts | 229° |
| 2026-05-06 22:28 | 35.10010 | -94.58377 | 30018 ft | 298 kts | 229° |
| 2026-05-06 22:28 | 35.08478 | -94.60023 | 30018 ft | 295 kts | 229° |
| 2026-05-06 22:29 | 35.06934 | -94.61685 | 30015 ft | 296 kts | 229° |
| 2026-05-06 22:29 | 35.05393 | -94.63342 | 30017 ft | 294 kts | 229° |
| 2026-05-06 22:29 | 35.03850 | -94.65004 | 30017 ft | 295 kts | 228° |
| 2026-05-06 22:29 | 35.02308 | -94.66663 | 30019 ft | 296 kts | 229° |
| 2026-05-06 22:30 | 35.00767 | -94.68321 | 30018 ft | 296 kts | 228° |
| 2026-05-06 22:30 | 34.99241 | -94.69959 | 30017 ft | 296 kts | 229° |
| 2026-05-06 22:30 | 34.97691 | -94.71622 | 30017 ft | 295 kts | 229° |
| 2026-05-06 22:30 | 34.96136 | -94.73288 | 30011 ft | 297 kts | 228° |
| 2026-05-06 22:31 | 34.94589 | -94.74941 | 30014 ft | 295 kts | 229° |
| 2026-05-06 22:31 | 34.93036 | -94.76606 | 30008 ft | 298 kts | 228° |
| 2026-05-06 22:31 | 34.91478 | -94.78276 | 30012 ft | 299 kts | 229° |
| 2026-05-06 22:31 | 34.89934 | -94.79929 | 30013 ft | 297 kts | 228° |
| 2026-05-06 22:32 | 34.88381 | -94.81592 | 30009 ft | 296 kts | 229° |
| 2026-05-06 22:32 | 34.86830 | -94.83252 | 30006 ft | 297 kts | 229° |
| 2026-05-06 22:32 | 34.85270 | -94.84917 | 30002 ft | 298 kts | 229° |
| 2026-05-06 22:32 | 34.83727 | -94.86580 | 29993 ft | 296 kts | 230° |
| 2026-05-06 22:33 | 34.82324 | -94.88345 | 29990 ft | 292 kts | 235° |
| 2026-05-06 22:33 | 34.81095 | -94.90311 | 29992 ft | 292 kts | 239° |
| 2026-05-06 22:33 | 34.79969 | -94.92394 | 29992 ft | 289 kts | 240° |
| 2026-05-06 22:33 | 34.78917 | -94.94424 | 29992 ft | 288 kts | 241° |
| 2026-05-06 22:34 | 34.77843 | -94.96491 | 29993 ft | 290 kts | 241° |
| 2026-05-06 22:34 | 34.76761 | -94.98554 | 29990 ft | 289 kts | 240° |
| 2026-05-06 22:34 | 34.75673 | -95.00613 | 29989 ft | 288 kts | 240° |
| 2026-05-06 22:34 | 34.74582 | -95.02673 | 29991 ft | 290 kts | 240° |
| 2026-05-06 22:35 | 34.73505 | -95.04715 | 29991 ft | 288 kts | 239° |
| 2026-05-06 22:35 | 34.72416 | -95.06776 | 29991 ft | 290 kts | 240° |
| 2026-05-06 22:35 | 34.71322 | -95.08844 | 29994 ft | 290 kts | 240° |
| 2026-05-06 22:35 | 34.70238 | -95.10889 | 29995 ft | 291 kts | 240° |
| 2026-05-06 22:36 | 34.69147 | -95.12954 | 29995 ft | 290 kts | 240° |
| 2026-05-06 22:36 | 34.68057 | -95.15014 | 29996 ft | 289 kts | 240° |
| 2026-05-06 22:36 | 34.66969 | -95.17063 | 29995 ft | 290 kts | 240° |
| 2026-05-06 22:36 | 34.65872 | -95.19129 | 29992 ft | 291 kts | 240° |
| 2026-05-06 22:37 | 34.64772 | -95.21196 | 29995 ft | 291 kts | 239° |
| 2026-05-06 22:37 | 34.63678 | -95.23251 | 29992 ft | 291 kts | 240° |
| 2026-05-06 22:37 | 34.62581 | -95.25309 | 29995 ft | 291 kts | 239° |
| 2026-05-06 22:37 | 34.61484 | -95.27367 | 29994 ft | 290 kts | 240° |
| 2026-05-06 22:38 | 34.60402 | -95.29402 | 29992 ft | 290 kts | 240° |
| 2026-05-06 22:38 | 34.59302 | -95.31473 | 29997 ft | 291 kts | 239° |
| 2026-05-06 22:38 | 34.58210 | -95.33528 | 29998 ft | 290 kts | 240° |
| 2026-05-06 22:38 | 34.57111 | -95.35588 | 30000 ft | 291 kts | 239° |
| 2026-05-06 22:39 | 34.56014 | -95.37643 | 29996 ft | 290 kts | 240° |
| 2026-05-06 22:39 | 34.54913 | -95.39703 | 29998 ft | 292 kts | 240° |
| 2026-05-06 22:39 | 34.53804 | -95.41778 | 30000 ft | 292 kts | 240° |
| 2026-05-06 22:39 | 34.52713 | -95.43809 | 29999 ft | 290 kts | 239° |
| 2026-05-06 22:40 | 34.51539 | -95.45802 | 29996 ft | 292 kts | 236° |
| 2026-05-06 22:40 | 34.50136 | -95.47640 | 29998 ft | 298 kts | 231° |
| 2026-05-06 22:40 | 34.48598 | -95.49331 | 29997 ft | 298 kts | 227° |
| 2026-05-06 22:40 | 34.47035 | -95.50964 | 29995 ft | 298 kts | 229° |
| 2026-05-06 22:41 | 34.43928 | -95.54279 | 29997 ft | 298 kts | 229° |
| 2026-05-06 22:41 | 34.42377 | -95.55956 | 29995 ft | 298 kts | 229° |
| 2026-05-06 22:41 | 34.40827 | -95.57633 | 29998 ft | 299 kts | 229° |
| 2026-05-06 22:42 | 34.39274 | -95.59318 | 30001 ft | 300 kts | 228° |
| 2026-05-06 22:42 | 34.37729 | -95.60994 | 29998 ft | 297 kts | 229° |
| 2026-05-06 22:42 | 34.36184 | -95.62672 | 30001 ft | 299 kts | 229° |
| 2026-05-06 22:42 | 34.34634 | -95.64356 | 29997 ft | 299 kts | 229° |
| 2026-05-06 22:43 | 34.33104 | -95.66017 | 30000 ft | 298 kts | 228° |
| 2026-05-06 22:43 | 34.31559 | -95.67692 | 30000 ft | 297 kts | 228° |
| 2026-05-06 22:43 | 34.30012 | -95.69368 | 30002 ft | 300 kts | 228° |
| 2026-05-06 22:43 | 34.28455 | -95.71052 | 30000 ft | 300 kts | 228° |
| 2026-05-06 22:44 | 34.26909 | -95.72723 | 29996 ft | 299 kts | 228° |
| 2026-05-06 22:44 | 34.25357 | -95.74403 | 29998 ft | 300 kts | 228° |
| 2026-05-06 22:44 | 34.23799 | -95.76090 | 29996 ft | 300 kts | 228° |
| 2026-05-06 22:45 | 34.20696 | -95.79449 | 30005 ft | 301 kts | 229° |
| 2026-05-06 22:45 | 34.17554 | -95.82811 | 30002 ft | 301 kts | 227° |
| 2026-05-06 22:45 | 34.15982 | -95.84484 | 30001 ft | 300 kts | 228° |
| 2026-05-06 22:46 | 34.14418 | -95.86149 | 29997 ft | 301 kts | 228° |
| 2026-05-06 22:46 | 34.11294 | -95.89478 | 29997 ft | 301 kts | 228° |
| 2026-05-06 22:47 | 34.08141 | -95.92841 | 29997 ft | 301 kts | 227° |
| 2026-05-06 22:47 | 34.06580 | -95.94502 | 29999 ft | 300 kts | 228° |
| 2026-05-06 22:47 | 34.05006 | -95.96180 | 29997 ft | 303 kts | 227° |
| 2026-05-06 22:48 | 34.01872 | -95.99515 | 29995 ft | 301 kts | 227° |
| 2026-05-06 22:48 | 33.98718 | -96.02870 | 29995 ft | 302 kts | 227° |
| 2026-05-06 22:48 | 33.97154 | -96.04530 | 29993 ft | 300 kts | 228° |
| 2026-05-06 22:49 | 33.95581 | -96.06198 | 29994 ft | 302 kts | 227° |
| 2026-05-06 22:49 | 33.92437 | -96.09531 | 29993 ft | 303 kts | 228° |
| 2026-05-06 22:50 | 33.89274 | -96.12890 | 29997 ft | 302 kts | 227° |
| 2026-05-06 22:50 | 33.86134 | -96.16230 | 29991 ft | 302 kts | 227° |
| 2026-05-06 22:51 | 33.82972 | -96.19595 | 29984 ft | 303 kts | 228° |
| 2026-05-06 22:51 | 33.79832 | -96.22924 | 29984 ft | 303 kts | 228° |
| 2026-05-06 22:52 | 33.76670 | -96.26273 | 29982 ft | 301 kts | 228° |
| 2026-05-06 22:52 | 33.73524 | -96.29603 | 29987 ft | 302 kts | 227° |
| 2026-05-06 22:53 | 33.70366 | -96.32945 | 29983 ft | 304 kts | 227° |
| 2026-05-06 22:53 | 33.67219 | -96.36271 | 29984 ft | 300 kts | 227° |
| 2026-05-06 22:54 | 33.64061 | -96.39606 | 29990 ft | 304 kts | 227° |
| 2026-05-06 22:54 | 33.60927 | -96.42909 | 29991 ft | 301 kts | 227° |
| 2026-05-06 22:55 | 33.57722 | -96.46291 | 29998 ft | 316 kts | 228° |
| 2026-05-06 22:55 | 33.54306 | -96.49900 | 29706 ft | 342 kts | 227° |
| 2026-05-06 22:55 | 33.52494 | -96.51812 | 29460 ft | 350 kts | 227° |
| 2026-05-06 22:56 | 33.50664 | -96.53733 | 29194 ft | 347 kts | 227° |
| 2026-05-06 22:56 | 33.48932 | -96.55665 | 28905 ft | 335 kts | 231° |
| 2026-05-06 22:56 | 33.47486 | -96.57783 | 28513 ft | 326 kts | 239° |
| 2026-05-06 22:56 | 33.46419 | -96.60158 | 28066 ft | 327 kts | 246° |
| 2026-05-06 22:57 | 33.45654 | -96.62748 | 27577 ft | 336 kts | 253° |
| 2026-05-06 22:57 | 33.45135 | -96.65469 | 27251 ft | 335 kts | 257° |
| 2026-05-06 22:57 | 33.44913 | -96.68231 | 27004 ft | 335 kts | 263° |
| 2026-05-06 22:57 | 33.44890 | -96.71021 | 26757 ft | 337 kts | 265° |
| 2026-05-06 22:58 | 33.44935 | -96.73810 | 26393 ft | 334 kts | 266° |
| 2026-05-06 22:58 | 33.44986 | -96.76595 | 25896 ft | 330 kts | 266° |
| 2026-05-06 22:58 | 33.45025 | -96.79308 | 25409 ft | 326 kts | 266° |
| 2026-05-06 22:58 | 33.45050 | -96.82024 | 24909 ft | 323 kts | 266° |
| 2026-05-06 22:59 | 33.45065 | -96.84676 | 24419 ft | 319 kts | 266° |
| 2026-05-06 22:59 | 33.45074 | -96.87338 | 23949 ft | 317 kts | 265° |
| 2026-05-06 22:59 | 33.45077 | -96.89986 | 23457 ft | 322 kts | 266° |
| 2026-05-06 22:59 | 33.45076 | -96.92710 | 22953 ft | 325 kts | 266° |
| 2026-05-06 23:00 | 33.45078 | -96.95412 | 22461 ft | 321 kts | 266° |
| 2026-05-06 23:00 | 33.45080 | -96.98070 | 21968 ft | 318 kts | 266° |
| 2026-05-06 23:00 | 33.45082 | -97.00691 | 21489 ft | 314 kts | 266° |
| 2026-05-06 23:00 | 33.45082 | -97.03284 | 21010 ft | 311 kts | 266° |
| 2026-05-06 23:01 | 33.45081 | -97.05846 | 20548 ft | 308 kts | 266° |
| 2026-05-06 23:01 | 33.45049 | -97.08395 | 20105 ft | 309 kts | 264° |
| 2026-05-06 23:01 | 33.44797 | -97.10988 | 19616 ft | 313 kts | 256° |
| 2026-05-06 23:01 | 33.44179 | -97.13429 | 19135 ft | 309 kts | 249° |
| 2026-05-06 23:02 | 33.43348 | -97.15779 | 18651 ft | 306 kts | 246° |
| 2026-05-06 23:02 | 33.42466 | -97.18067 | 18171 ft | 303 kts | 246° |
| 2026-05-06 23:02 | 33.41586 | -97.20329 | 17695 ft | 300 kts | 245° |
| 2026-05-06 23:02 | 33.40723 | -97.22583 | 17230 ft | 297 kts | 246° |
| 2026-05-06 23:03 | 33.39874 | -97.24837 | 16792 ft | 299 kts | 246° |
| 2026-05-06 23:03 | 33.39021 | -97.27121 | 16515 ft | 305 kts | 246° |
| 2026-05-06 23:03 | 33.38049 | -97.29361 | 16237 ft | 304 kts | 237° |
| 2026-05-06 23:03 | 33.36454 | -97.31026 | 15687 ft | 314 kts | 213° |
| 2026-05-06 23:04 | 33.34302 | -97.31712 | 15048 ft | 332 kts | 191° |
| 2026-05-06 23:04 | 33.31971 | -97.31310 | 14468 ft | 349 kts | 168° |
| 2026-05-06 23:04 | 33.29790 | -97.29958 | 13944 ft | 362 kts | 150° |
| 2026-05-06 23:04 | 33.27931 | -97.27891 | 13402 ft | 369 kts | 139° |
| 2026-05-06 23:05 | 33.26054 | -97.25874 | 12836 ft | 358 kts | 154° |
| 2026-05-06 23:05 | 33.23815 | -97.24769 | 12343 ft | 340 kts | 174° |
| 2026-05-06 23:05 | 33.21503 | -97.24463 | 11842 ft | 330 kts | 184° |
| 2026-05-06 23:05 | 33.19218 | -97.24425 | 11348 ft | 327 kts | 186° |
| 2026-05-06 23:06 | 33.16938 | -97.24369 | 10846 ft | 326 kts | 183° |
| 2026-05-06 23:06 | 33.14688 | -97.24214 | 10477 ft | 321 kts | 181° |
| 2026-05-06 23:06 | 33.12505 | -97.23981 | 10331 ft | 309 kts | 180° |
| 2026-05-06 23:06 | 33.10401 | -97.23716 | 10228 ft | 296 kts | 180° |
| 2026-05-06 23:07 | 33.08389 | -97.23450 | 10104 ft | 285 kts | 180° |
| 2026-05-06 23:07 | 33.06444 | -97.23199 | 9787 ft | 282 kts | 180° |
| 2026-05-06 23:07 | 33.04479 | -97.22954 | 9362 ft | 283 kts | 180° |
| 2026-05-06 23:07 | 33.02520 | -97.22713 | 8986 ft | 282 kts | 180° |
| 2026-05-06 23:08 | 33.00589 | -97.22472 | 8611 ft | 282 kts | 179° |
| 2026-05-06 23:08 | 32.98632 | -97.22234 | 8248 ft | 280 kts | 178° |
| 2026-05-06 23:08 | 32.96700 | -97.21974 | 7990 ft | 275 kts | 178° |
| 2026-05-06 23:08 | 32.94807 | -97.21737 | 7742 ft | 270 kts | 178° |
| 2026-05-06 23:09 | 32.92961 | -97.21506 | 7500 ft | 268 kts | 178° |
| 2026-05-06 23:09 | 32.91119 | -97.21273 | 7306 ft | 261 kts | 178° |
| 2026-05-06 23:09 | 32.89312 | -97.21060 | 7009 ft | 262 kts | 178° |
| 2026-05-06 23:09 | 32.87461 | -97.20832 | 6644 ft | 267 kts | 177° |
| 2026-05-06 23:10 | 32.85606 | -97.20593 | 6293 ft | 267 kts | 176° |
| 2026-05-06 23:10 | 32.83786 | -97.20352 | 5944 ft | 264 kts | 176° |
| 2026-05-06 23:10 | 32.81958 | -97.20252 | 5614 ft | 259 kts | 186° |
| 2026-05-06 23:10 | 32.80295 | -97.20828 | 5407 ft | 245 kts | 215° |
| 2026-05-06 23:11 | 32.79140 | -97.22221 | 5240 ft | 231 kts | 242° |
| 2026-05-06 23:11 | 32.78490 | -97.23919 | 4986 ft | 226 kts | 255° |
| 2026-05-06 23:11 | 32.78223 | -97.25738 | 4726 ft | 220 kts | 278° |
| 2026-05-06 23:11 | 32.78783 | -97.27335 | 4495 ft | 211 kts | 312° |
| 2026-05-06 23:12 | 32.79931 | -97.28380 | 4166 ft | 211 kts | 335° |
| 2026-05-06 23:12 | 32.81338 | -97.28905 | 3866 ft | 209 kts | 353° |
| 2026-05-06 23:12 | 32.82766 | -97.28786 | 3598 ft | 207 kts | 11° |
| 2026-05-06 23:12 | 32.84190 | -97.28616 | 3314 ft | 204 kts | 356° |
| 2026-05-06 23:13 | 32.85567 | -97.28929 | 3060 ft | 200 kts | 348° |
| 2026-05-06 23:13 | 32.86919 | -97.29321 | 2789 ft | 197 kts | 349° |
| 2026-05-06 23:13 | 32.88240 | -97.29649 | 2522 ft | 192 kts | 351° |
| 2026-05-06 23:13 | 32.89515 | -97.29911 | 2271 ft | 178 kts | 352° |
| 2026-05-06 23:14 | 32.90690 | -97.30144 | 2039 ft | 167 kts | 352° |
| 2026-05-06 23:14 | 32.91802 | -97.30376 | 1849 ft | 156 kts | 352° |
| 2026-05-06 23:14 | 32.92836 | -97.30585 | 1611 ft | 145 kts | 353° |
| 2026-05-06 23:14 | 32.93814 | -97.30785 | 1434 ft | 144 kts | 352° |
| 2026-05-06 23:15 | 32.94814 | -97.30988 | 1245 ft | 145 kts | 353° |
| 2026-05-06 23:15 | 32.95827 | -97.31181 | 1095 ft | 148 kts | 353° |
| 2026-05-06 23:15 | 32.96852 | -97.31400 | 874 ft | 150 kts | 352° |
| 2026-05-06 23:15 | 32.97883 | -97.31610 | 681 ft | 146 kts | 353° |
| 2026-05-06 23:16 | 32.98730 | -97.31782 | 698 ft | 93 kts | 351° |
| 2026-05-06 23:16 | 32.99192 | -97.31873 | 705 ft | 49 kts | 352° |
| 2026-05-06 23:16 | 32.99491 | -97.31936 | 711 ft | 41 kts | 350° |
| 2026-05-06 23:16 | 32.99708 | -97.31979 | 713 ft | 18 kts | 351° |
| 2026-05-06 23:17 | 32.99779 | -97.31927 | 712 ft | 13 kts | 84° |
| 2026-05-06 23:17 | 32.99737 | -97.31860 | 711 ft | 11 kts | 164° |
| 2026-05-06 23:17 | 32.99646 | -97.31835 | 709 ft | 14 kts | 172° |
| 2026-05-06 23:17 | 32.99538 | -97.31815 | 707 ft | 16 kts | 171° |
| 2026-05-06 23:18 | 32.99420 | -97.31791 | 705 ft | 17 kts | 169° |
| 2026-05-06 23:18 | 32.99299 | -97.31763 | 704 ft | 18 kts | 168° |
| 2026-05-06 23:18 | 32.99168 | -97.31740 | 701 ft | 19 kts | 172° |
| 2026-05-06 23:18 | 32.99031 | -97.31712 | 700 ft | 20 kts | 170° |
| 2026-05-06 23:19 | 32.98887 | -97.31684 | 698 ft | 21 kts | 170° |
| 2026-05-06 23:19 | 32.98740 | -97.31651 | 695 ft | 21 kts | 168° |
| 2026-05-06 23:19 | 32.98611 | -97.31628 | 692 ft | 15 kts | 178° |
| 2026-05-06 23:19 | 32.98546 | -97.31708 | 692 ft | 14 kts | 254° |
| 2026-05-06 23:20 | 32.98526 | -97.31823 | 694 ft | 15 kts | 260° |
| 2026-05-06 23:20 | 32.98505 | -97.31967 | 694 ft | 17 kts | 259° |
| 2026-05-06 23:20 | 32.98514 | -97.32070 | 694 ft | 11 kts | 330° |
| 2026-05-06 23:20 | 32.98583 | -97.32086 | 696 ft | 9 kts | 352° |
| 2026-05-06 23:21 | 32.98630 | -97.32114 | 697 ft | 7 kts | 289° |
| 2026-05-06 23:21 | 32.98622 | -97.32185 | 697 ft | 9 kts | 247° |
| 2026-05-06 23:21 | 32.98605 | -97.32250 | 697 ft | 4 kts | 261° |
| 2026-05-06 23:21 | 32.98602 | -97.32275 | 697 ft | 0 kts | 261° |